Time;durP1;ratioP1;P1;durP2;ratioP2;P2;SDS_P1;SDS_P2;PMS_P1;PMS_P2;Temp;Humidity;BMP_temperature;BMP_pressure;BME280_temperature;BME280_humidity;BME280_pressure;Samples;Min_cycle;Max_cycle;Signal;HPM_P1;HPM_P2
2023/10/08 00:04:11;;;;;;;4.63;3.38;;;;;;;18.00;69.71;100802.03;10346847;28;20041;-55
2023/10/08 00:09:15;;;;;;;6.78;3.83;;;;;;;18.00;69.97;100810.13;10339419;28;20053;-54
2023/10/08 00:14:21;;;;;;;;;;;;;;;18.05;69.79;100828.50;10343933;28;20149;-55
2023/10/08 00:19:24;;;;;;;5.85;3.72;;;;;;;17.95;70.24;100807.03;10337874;28;19944;-55
2023/10/08 00:24:26;;;;;;;6.32;3.55;;;;;;;17.94;70.18;100795.44;10340290;28;20049;-56
2023/10/08 00:29:31;;;;;;;6.60;3.50;;;;;;;17.94;70.17;100806.19;10341342;28;20057;-54
2023/10/08 00:34:33;;;;;;;4.10;3.03;;;;;;;17.96;70.59;100831.13;10339075;28;20553;-55
2023/10/08 00:39:37;;;;;;;8.50;3.75;;;;;;;17.99;70.37;100822.72;10335884;28;20058;-55
2023/10/08 00:44:47;;;;;;;5.97;3.50;;;;;;;17.99;70.51;100814.63;10339210;28;20541;-56
2023/10/08 00:50:02;;;;;;;6.72;3.15;;;;;;;17.97;70.21;100811.25;10348578;28;20046;-55
2023/10/08 01:00:15;;;;;;;4.70;3.33;;;;;;;17.84;70.62;100794.66;10337497;28;20729;-55
2023/10/08 01:05:25;;;;;;;5.00;3.53;;;;;;;17.79;71.38;100794.25;10353945;28;20050;-55
2023/10/08 01:10:27;;;;;;;6.20;4.15;;;;;;;17.90;71.40;100799.44;10334742;28;21156;-56
2023/10/08 01:15:29;;;;;;;6.32;3.83;;;;;;;17.93;71.24;100799.09;10339820;28;20603;-55
2023/10/08 01:20:34;;;;;;;5.45;3.50;;;;;;;17.77;71.26;100786.34;10333093;28;20054;-55
2023/10/08 01:25:37;;;;;;;4.85;3.47;;;;;;;17.93;71.21;100800.97;10339130;28;20055;-55
2023/10/08 01:30:41;;;;;;;6.57;3.80;;;;;;;17.91;71.16;100809.22;10339346;28;20041;-55
2023/10/08 01:35:43;;;;;;;4.95;3.10;;;;;;;17.85;71.32;100809.81;10342275;28;20414;-54
2023/10/08 01:40:50;;;;;;;6.28;3.50;;;;;;;17.85;71.55;100834.03;10343218;28;20242;-58
2023/10/08 01:45:52;;;;;;;5.38;3.50;;;;;;;17.82;72.13;100812.81;10338561;28;20053;-54
2023/10/08 01:50:55;;;;;;;4.95;3.78;;;;;;;17.81;71.64;100816.50;10338916;28;20244;-55
2023/10/08 01:55:58;;;;;;;6.20;3.20;;;;;;;17.77;71.58;100810.56;10333898;28;20101;-55
2023/10/08 02:01:00;;;;;;;5.07;3.10;;;;;;;17.80;71.60;100821.03;10329519;28;20061;-55
2023/10/08 02:06:05;;;;;;;6.30;3.70;;;;;;;17.72;72.08;100817.44;10330399;28;20426;-54
2023/10/08 02:11:08;;;;;;;6.10;3.85;;;;;;;17.70;72.30;100835.59;10337251;28;20084;-57
2023/10/08 02:16:10;;;;;;;6.55;3.65;;;;;;;17.69;72.21;100823.16;10340080;28;20134;-54
2023/10/08 02:21:11;;;;;;;6.97;4.32;;;;;;;17.69;72.11;100815.06;10336868;28;20053;-55
2023/10/08 02:26:14;;;;;;;4.97;3.40;;;;;;;17.69;72.37;100796.22;10345308;28;20057;-55
2023/10/08 02:31:18;;;;;;;5.17;3.27;;;;;;;17.65;72.25;100791.16;10338008;28;20054;-55
2023/10/08 02:36:19;;;;;;;6.90;3.30;;;;;;;17.67;72.33;100808.00;10339591;28;20057;-55
2023/10/08 02:41:24;;;;;;;5.43;3.58;;;;;;;17.65;71.93;100785.78;10331134;28;20557;-55
2023/10/08 02:46:29;;;;;;;4.57;3.70;;;;;;;17.58;72.72;100787.41;10331834;28;20116;-55
2023/10/08 02:51:30;;;;;;;5.85;3.47;;;;;;;17.34;72.66;100766.53;10341147;28;20057;-55
2023/10/08 02:56:32;;;;;;;4.35;3.15;;;;;;;17.47;72.78;100790.31;10338640;28;20639;-55
2023/10/08 03:01:34;;;;;;;5.53;3.90;;;;;;;17.58;73.10;100833.16;10334535;28;20501;-55
2023/10/08 03:06:38;;;;;;;4.53;3.30;;;;;;;17.40;72.62;100787.41;10334745;28;20108;-56
2023/10/08 03:11:39;;;;;;;5.57;3.35;;;;;;;17.55;72.48;100821.84;10331129;28;20041;-55
2023/10/08 03:16:41;;;;;;;5.18;3.45;;;;;;;17.56;72.81;100831.63;10335269;28;22885;-55
2023/10/08 03:21:45;;;;;;;5.25;3.42;;;;;;;17.52;73.02;100852.63;10341448;28;20383;-55
2023/10/08 03:26:55;;;;;;;6.68;3.35;;;;;;;17.55;73.07;100859.53;10333142;28;20240;-55
2023/10/08 03:31:57;;;;;;;4.95;3.70;;;;;;;17.56;72.97;100862.06;10334144;28;20612;-54
2023/10/08 03:37:07;;;;;;;7.38;3.60;;;;;;;17.54;72.59;100868.63;10335327;28;20053;-54
2023/10/08 03:42:12;;;;;;;5.90;3.58;;;;;;;17.51;72.71;100869.75;10331655;28;20061;-55
2023/10/08 03:47:14;;;;;;;6.28;4.00;;;;;;;17.52;73.09;100866.06;10334082;28;20163;-55
2023/10/08 03:52:21;;;;;;;7.30;3.75;;;;;;;17.48;73.16;100870.06;10343506;28;20738;-55
2023/10/08 03:57:41;;;;;;;6.78;3.53;;;;;;;17.48;73.36;100872.75;10332691;28;20750;-55
2023/10/08 04:02:54;;;;;;;4.95;3.47;;;;;;;17.37;72.79;100856.81;10335824;28;20619;-55
2023/10/08 04:13:00;;;;;;;6.13;4.15;;;;;;;17.34;73.32;100851.75;10320599;28;20053;-55
2023/10/08 04:18:02;;;;;;;5.40;3.65;;;;;;;17.33;73.24;100855.47;10333711;28;20045;-55
2023/10/08 04:23:13;;;;;;;6.20;3.95;;;;;;;17.30;73.42;100845.84;10335136;28;20602;-54
2023/10/08 04:28:17;;;;;;;4.63;3.53;;;;;;;17.25;73.76;100829.28;10330607;28;20050;-54
2023/10/08 04:33:19;;;;;;;;;;;;;;;17.23;73.58;100829.44;10332434;28;20054;-55
2023/10/08 04:38:25;;;;;;;8.13;3.95;;;;;;;17.19;73.99;100833.47;10339978;28;20318;-54
2023/10/08 04:43:30;;;;;;;5.00;3.40;;;;;;;17.11;73.51;100831.53;10340681;28;20041;-56
2023/10/08 04:48:33;;;;;;;7.05;3.83;;;;;;;17.16;74.29;100854.44;10349323;28;20057;-54
2023/10/08 04:53:40;;;;;;;4.75;3.42;;;;;;;17.17;74.82;100875.78;10340511;28;20057;-54
2023/10/08 04:58:47;;;;;;;6.28;3.65;;;;;;;17.18;74.54;100868.59;10341695;28;20053;-54
2023/10/08 05:04:21;;;;;;;5.05;4.15;;;;;;;17.17;74.12;100878.47;10358701;28;20049;-54
2023/10/08 05:24:51;;;;;;;5.40;3.78;;;;;;;17.11;74.58;100863.81;10342172;28;20122;-54
2023/10/08 05:30:11;;;;;;;6.13;4.20;;;;;;;17.13;74.57;100860.97;10341060;28;20060;-55
2023/10/08 05:46:19;;;;;;;5.70;3.47;;;;;;;16.85;74.48;100809.88;10345649;28;20127;-54
2023/10/08 05:51:23;;;;;;;7.05;3.63;;;;;;;17.03;74.76;100857.50;10346242;28;20053;-55
2023/10/08 05:56:28;;;;;;;5.88;3.72;;;;;;;17.08;74.91;100841.75;10344249;28;20413;-54
2023/10/08 06:01:39;;;;;;;5.95;3.25;;;;;;;17.17;75.28;100840.00;10343882;28;20052;-55
2023/10/08 06:06:47;;;;;;;5.90;3.72;;;;;;;17.20;76.11;100864.72;10338396;28;20050;-55
2023/10/08 06:17:34;;;;;;;4.88;3.80;;;;;;;17.34;75.12;100906.44;10338452;28;20053;-54
2023/10/08 06:22:36;;;;;;;7.70;3.70;;;;;;;17.35;75.89;100920.72;10331804;28;20045;-55
2023/10/08 06:27:38;;;;;;;5.30;3.38;;;;;;;17.35;75.14;100923.41;10337148;28;20112;-54
2023/10/08 06:32:39;;;;;;;4.68;3.28;;;;;;;17.37;75.69;100940.25;10352175;28;20053;-57
2023/10/08 06:37:41;;;;;;;6.38;3.75;;;;;;;17.36;74.30;100942.09;10340486;28;20067;-57
2023/10/08 06:42:43;;;;;;;6.55;3.80;;;;;;;17.41;74.53;100944.34;10338971;28;20236;-55
2023/10/08 06:47:45;;;;;;;5.32;3.35;;;;;;;17.40;73.96;100923.78;10346383;28;20049;-54
2023/10/08 06:52:49;;;;;;;5.55;4.20;;;;;;;17.41;73.95;100923.63;10336221;28;20056;-55
2023/10/08 06:57:50;;;;;;;4.60;3.60;;;;;;;17.34;73.93;100935.16;10338211;28;20055;-55
2023/10/08 07:02:53;;;;;;;6.35;3.85;;;;;;;17.34;74.28;100959.38;10332964;28;20060;-55
2023/10/08 07:07:55;;;;;;;6.47;4.03;;;;;;;17.36;74.96;100962.78;10339026;28;20060;-54
2023/10/08 07:12:57;;;;;;;4.88;3.80;;;;;;;17.40;74.24;100974.91;10339872;28;21019;-54
2023/10/08 07:18:08;;;;;;;5.00;3.85;;;;;;;17.43;74.46;100985.38;10347122;28;20471;-57
2023/10/08 07:23:24;;;;;;;8.17;3.73;;;;;;;17.39;73.84;100979.47;10339248;28;20093;-55
2023/10/08 07:28:26;;;;;;;6.38;4.13;;;;;;;17.45;73.33;100992.31;10333536;28;20502;-55
2023/10/08 07:33:36;;;;;;;5.07;3.75;;;;;;;17.48;74.25;100988.50;10336906;28;20229;-56
2023/10/08 07:38:40;;;;;;;5.47;4.20;;;;;;;17.33;73.79;100936.19;10339599;28;20366;-54
2023/10/08 07:43:42;;;;;;;5.90;4.30;;;;;;;17.54;74.49;100960.97;10338470;28;20135;-55
2023/10/08 07:48:43;;;;;;;5.80;3.35;;;;;;;17.53;73.85;100948.50;10337791;28;20065;-56
2023/10/08 07:53:45;;;;;;;5.55;3.50;;;;;;;17.55;73.96;100959.97;10337504;28;20037;-54
2023/10/08 07:58:49;;;;;;;;;;;;;;;17.48;73.87;100961.56;10331911;28;21056;-54
2023/10/08 08:03:51;;;;;;;5.95;4.00;;;;;;;17.45;74.04;100945.72;10326713;28;19925;-56
2023/10/08 08:08:53;;;;;;;6.75;3.38;;;;;;;17.48;73.97;100972.34;10334043;28;20049;-54
2023/10/08 08:13:55;;;;;;;5.38;3.97;;;;;;;17.56;74.77;100967.03;10341110;28;20529;-55
2023/10/08 08:18:57;;;;;;;5.85;3.80;;;;;;;17.54;74.34;100957.44;10339171;28;20069;-54
2023/10/08 08:24:05;;;;;;;6.20;3.20;;;;;;;17.56;73.90;100958.13;10340992;28;20810;-54
2023/10/08 08:29:08;;;;;;;6.85;3.70;;;;;;;17.66;74.00;100975.91;10333970;28;20060;-55
2023/10/08 08:34:17;;;;;;;;;;;;;;;17.76;73.35;100985.75;10349848;28;20049;-55
2023/10/08 08:39:32;;;;;;;7.00;3.97;;;;;;;17.84;72.89;101010.06;10339451;28;19933;-54
2023/10/08 08:44:45;;;;;;;6.43;3.63;;;;;;;17.73;73.66;100973.44;10345540;28;20049;-54
2023/10/08 08:49:48;;;;;;;6.05;4.03;;;;;;;17.98;72.99;101006.03;10337150;28;20058;-53
2023/10/08 08:54:51;;;;;;;9.65;3.92;;;;;;;18.10;72.70;101022.81;10339704;28;20045;-55
2023/10/08 08:59:55;;;;;;;6.30;3.57;;;;;;;18.30;72.24;101008.19;10346619;28;20147;-57
2023/10/08 09:04:56;;;;;;;6.50;4.15;;;;;;;18.50;71.84;101016.09;10339849;28;20565;-56
2023/10/08 09:09:58;;;;;;;6.05;3.40;;;;;;;18.63;70.58;101024.59;10337081;28;20096;-56
2023/10/08 09:15:02;;;;;;;5.68;3.10;;;;;;;18.88;69.08;101035.59;10344091;28;20104;-55
2023/10/08 09:20:06;;;;;;;7.22;3.40;;;;;;;18.94;69.36;101051.13;10340820;28;20092;-56
2023/10/08 09:25:08;;;;;;;12.65;5.40;;;;;;;19.18;68.77;101044.19;10349814;28;20091;-55
2023/10/08 09:30:13;;;;;;;4.68;3.72;;;;;;;19.27;67.12;101034.28;10334742;28;20106;-55
2023/10/08 09:35:19;;;;;;;6.50;3.70;;;;;;;19.38;66.16;101029.44;10339083;28;20060;-55
2023/10/08 09:40:22;;;;;;;5.20;3.50;;;;;;;19.63;65.63;101039.50;10341400;28;20053;-56
2023/10/08 09:45:23;;;;;;;7.63;4.30;;;;;;;19.94;64.75;101032.50;10338598;28;20140;-56
2023/10/08 09:50:32;;;;;;;7.28;4.20;;;;;;;20.31;62.60;101039.31;10342885;28;20172;-55
2023/10/08 09:55:35;;;;;;;7.78;4.03;;;;;;;20.22;62.11;101007.03;10334762;28;20041;-55
2023/10/08 10:00:38;;;;;;;8.75;4.05;;;;;;;20.20;62.05;101033.38;10333186;28;20152;-54
2023/10/08 10:05:42;;;;;;;5.47;3.83;;;;;;;20.02;62.41;101017.31;10334352;28;20178;-56
2023/10/08 10:10:47;;;;;;;6.68;4.13;;;;;;;19.95;63.04;101023.41;10334637;28;20053;-55
2023/10/08 10:15:49;;;;;;;6.50;3.90;;;;;;;20.06;63.91;101040.31;10331255;28;20662;-56
2023/10/08 10:20:54;;;;;;;6.35;3.70;;;;;;;20.19;64.43;101039.78;10331119;28;20053;-55
2023/10/08 10:25:57;;;;;;;6.80;3.67;;;;;;;20.29;62.79;101046.72;10335296;28;20142;-56
2023/10/08 10:30:59;;;;;;;7.40;3.50;;;;;;;20.68;62.44;101037.13;10331340;28;20371;-56
2023/10/08 10:36:02;;;;;;;5.30;3.87;;;;;;;21.07;61.64;101027.41;10340114;28;20173;-54
2023/10/08 10:41:08;;;;;;;7.57;3.72;;;;;;;21.24;60.07;101063.41;10339560;28;20045;-55
2023/10/08 10:51:31;;;;;;;7.40;4.60;;;;;;;22.56;57.00;101064.41;10342857;28;20050;-58
2023/10/08 10:56:39;;;;;;;6.30;3.60;;;;;;;23.10;55.06;101067.97;10338042;28;20065;-56
2023/10/08 11:01:46;;;;;;;7.30;4.20;;;;;;;23.54;53.10;101079.84;10338782;28;20075;-55
2023/10/08 11:06:51;;;;;;;7.43;3.70;;;;;;;23.54;52.84;101064.41;10341160;28;20136;-55
2023/10/08 11:11:54;;;;;;;8.85;3.72;;;;;;;23.13;53.59;101078.44;10337928;28;20053;-56
2023/10/08 11:16:56;;;;;;;6.50;3.75;;;;;;;22.90;55.03;101094.78;10335119;28;20064;-59
2023/10/08 11:21:59;;;;;;;7.75;4.10;;;;;;;23.01;54.50;101079.91;10335483;28;20188;-56
2023/10/08 11:27:17;;;;;;;8.65;4.07;;;;;;;23.52;54.56;101062.91;10334865;28;20053;-56
2023/10/08 11:32:25;;;;;;;7.53;3.67;;;;;;;24.14;51.59;101053.38;10329568;28;20524;-56
2023/10/08 11:37:28;;;;;;;7.63;3.17;;;;;;;24.05;52.17;101052.69;10332751;28;20117;-55
2023/10/08 11:47:42;;;;;;;6.50;4.00;;;;;;;23.74;53.29;101020.31;10339835;28;20042;-55
2023/10/08 11:52:44;;;;;;;8.68;3.90;;;;;;;23.59;53.57;101042.94;10339144;28;20068;-55
2023/10/08 11:57:50;;;;;;;9.38;4.15;;;;;;;23.72;53.63;101042.25;10344307;28;20054;-55
2023/10/08 12:02:54;;;;;;;7.15;4.22;;;;;;;25.06;51.32;101029.88;10339344;28;20142;-56
2023/10/08 12:07:57;;;;;;;7.85;5.00;;;;;;;25.94;47.12;101021.03;10333720;28;20987;-55
2023/10/08 12:13:00;;;;;;;8.43;4.18;;;;;;;26.81;45.84;101008.31;10339796;28;20045;-55
2023/10/08 12:23:25;;;;;;;7.22;4.47;;;;;;;28.17;42.41;101026.69;10333650;28;20399;-55
2023/10/08 12:28:27;;;;;;;6.55;3.72;;;;;;;28.61;40.98;101019.38;10336094;28;20139;-55
2023/10/08 12:33:29;;;;;;;7.10;3.97;;;;;;;29.08;41.25;101029.91;10333187;28;20060;-54
2023/10/08 12:38:31;;;;;;;7.78;3.90;;;;;;;29.42;38.57;101019.38;10339750;28;20591;-55
2023/10/08 12:43:35;;;;;;;6.43;3.53;;;;;;;29.29;40.65;101027.78;10343596;28;20056;-55
2023/10/08 12:48:38;;;;;;;6.32;3.97;;;;;;;28.61;40.81;101015.81;10331815;28;20091;-54
2023/10/08 12:53:39;;;;;;;7.40;4.15;;;;;;;27.56;42.98;101006.19;10335408;28;20049;-55
2023/10/08 12:58:47;;;;;;;7.33;4.13;;;;;;;26.77;44.34;101009.78;10342618;28;20059;-56
2023/10/08 13:03:49;;;;;;;5.72;4.18;;;;;;;26.28;45.58;101005.56;10346632;28;20046;-54
2023/10/08 13:08:52;;;;;;;9.05;3.70;;;;;;;25.98;47.19;101005.94;10338171;28;20054;-54
2023/10/08 13:13:56;;;;;;;7.65;3.53;;;;;;;26.09;47.36;101004.50;10337501;28;20064;-55
2023/10/08 13:18:59;;;;;;;6.20;4.35;;;;;;;26.08;47.23;101003.66;10338420;28;20045;-54
2023/10/08 13:24:02;;;;;;;11.68;5.05;;;;;;;25.88;46.80;101000.03;10337783;28;20056;-54
2023/10/08 13:29:05;;;;;;;8.85;4.55;;;;;;;25.59;48.13;100985.72;10346612;28;20422;-54
2023/10/08 13:34:12;;;;;;;;;;;;;;;25.39;47.65;100993.81;10334847;28;20045;-55
2023/10/08 13:39:18;;;;;;;5.50;3.60;;;;;;;25.16;49.21;100988.66;10336333;28;20000;-54
2023/10/08 13:44:28;;;;;;;7.20;3.70;;;;;;;25.02;49.40;100991.28;10337697;28;20136;-54
2023/10/08 13:49:32;;;;;;;9.50;4.25;;;;;;;24.83;50.04;100992.03;10335730;28;25201;-53
2023/10/08 13:54:39;;;;;;;6.18;3.80;;;;;;;26.28;47.51;100984.56;10331717;28;20086;-55
2023/10/08 13:59:42;;;;;;;8.90;4.35;;;;;;;24.96;49.24;100955.88;10339372;28;20057;-54
2023/10/08 14:04:44;;;;;;;6.72;4.88;;;;;;;24.50;50.93;100979.84;10333710;28;20046;-54
2023/10/08 14:09:47;;;;;;;7.30;4.15;;;;;;;24.00;52.55;100940.94;10332173;28;20870;-55
2023/10/08 14:14:49;;;;;;;5.75;3.35;;;;;;;23.99;53.74;100970.00;10339129;28;20053;-56
2023/10/08 14:19:59;;;;;;;8.35;4.50;;;;;;;23.72;54.46;100965.28;10338313;28;20049;-55
2023/10/08 14:25:02;;;;;;;9.30;4.40;;;;;;;23.54;55.67;100972.03;10325084;28;20057;-54
2023/10/08 14:30:05;;;;;;;7.13;4.53;;;;;;;23.41;55.94;100961.84;10333999;28;20057;-56
2023/10/08 14:45:48;;;;;;;5.75;3.33;;;;;;;23.00;57.98;100961.47;10333396;28;20064;-56
2023/10/08 14:50:50;;;;;;;5.27;3.37;;;;;;;22.83;58.77;100936.41;10330064;28;20282;-54
2023/10/08 14:55:52;;;;;;;4.32;3.55;;;;;;;22.82;58.71;100934.72;10337503;28;20130;-55
2023/10/08 15:00:54;;;;;;;7.60;3.15;;;;;;;22.77;58.85;100955.16;10337089;28;20622;-54
2023/10/08 15:05:55;;;;;;;3.35;2.42;;;;;;;22.63;59.13;100945.13;10331519;28;20046;-56
2023/10/08 15:10:57;;;;;;;7.68;3.45;;;;;;;22.46;59.52;100935.44;10334294;28;20050;-56
2023/10/08 15:16:04;;;;;;;6.85;2.92;;;;;;;22.29;59.93;100934.75;10331715;28;20056;-55
2023/10/08 15:21:07;;;;;;;4.25;2.58;;;;;;;22.19;60.51;100935.84;10329587;28;20053;-54
2023/10/08 15:26:09;;;;;;;5.88;2.85;;;;;;;22.04;61.12;100916.84;10329079;28;20171;-53
2023/10/08 15:31:10;;;;;;;4.22;2.55;;;;;;;21.97;61.40;100910.47;10335270;28;20064;-54
2023/10/08 15:36:12;;;;;;;4.78;2.88;;;;;;;21.89;60.76;100918.66;10327928;28;20159;-56
2023/10/08 15:41:15;;;;;;;5.18;3.03;;;;;;;21.77;62.01;100931.81;10330407;28;20052;-55
2023/10/08 15:46:20;;;;;;;4.95;2.75;;;;;;;21.71;62.83;100927.09;10333711;28;20121;-54
2023/10/08 15:51:24;;;;;;;5.13;2.83;;;;;;;21.52;62.49;100918.41;10333534;28;20058;-55
2023/10/08 15:56:29;;;;;;;6.90;2.50;;;;;;;21.46;62.79;100927.22;10329335;28;20526;-55
2023/10/08 16:01:30;;;;;;;5.50;2.40;;;;;;;21.33;62.61;100940.50;10329356;28;20075;-54
2023/10/08 16:06:32;;;;;;;4.60;2.10;;;;;;;21.27;63.13;100930.38;10331559;28;21008;-55
2023/10/08 16:11:34;;;;;;;2.85;1.67;;;;;;;21.14;62.94;100958.88;10333514;28;20194;-54
2023/10/08 16:16:36;;;;;;;4.80;1.73;;;;;;;21.02;63.66;100960.28;10333727;28;20049;-55
2023/10/08 16:21:39;;;;;;;3.05;1.80;;;;;;;20.93;63.61;100970.28;10336005;28;20280;-54
2023/10/08 16:26:41;;;;;;;4.63;2.15;;;;;;;20.70;64.34;100945.81;10330223;28;20518;-55
2023/10/08 16:31:43;;;;;;;2.92;2.25;;;;;;;20.73;64.30;100961.72;10338340;28;20083;-54
2023/10/08 16:36:45;;;;;;;3.72;2.20;;;;;;;20.66;65.23;100955.31;10334220;28;20053;-54
2023/10/08 16:41:46;;;;;;;2.85;2.25;;;;;;;20.52;65.09;100953.28;10341880;28;20049;-54
2023/10/08 16:46:51;;;;;;;6.30;2.13;;;;;;;20.48;66.05;100977.94;10338461;28;20129;-56
2023/10/08 16:51:52;;;;;;;4.88;2.00;;;;;;;20.38;66.97;100963.75;10329793;28;20050;-54
2023/10/08 16:56:54;;;;;;;2.95;2.40;;;;;;;20.24;65.78;100967.19;10337116;28;20053;-56
2023/10/08 17:01:55;;;;;;;9.50;3.15;;;;;;;20.04;66.31;100921.56;10334979;28;20057;-54
2023/10/08 17:06:57;;;;;;;4.15;2.05;;;;;;;19.78;67.39;100930.66;10342726;28;20053;-55
2023/10/08 17:11:59;;;;;;;6.32;2.45;;;;;;;19.77;67.84;100918.19;10341054;28;20060;-54
2023/10/08 17:17:02;;;;;;;4.00;2.10;;;;;;;19.86;68.45;100926.28;10340068;28;20054;-54
2023/10/08 17:22:04;;;;;;;4.80;2.55;;;;;;;19.87;69.20;100945.03;10336628;28;20079;-54
2023/10/08 17:27:06;;;;;;;5.25;2.30;;;;;;;19.85;68.54;100938.97;10336585;28;20404;-55
2023/10/08 17:32:15;;;;;;;6.05;2.30;;;;;;;19.78;68.24;100929.81;10331831;28;20054;-55
2023/10/08 17:37:17;;;;;;;5.72;2.15;;;;;;;19.66;68.48;100937.38;10330755;28;20057;-54
2023/10/08 17:42:18;;;;;;;4.68;2.92;;;;;;;19.62;67.68;100933.31;10333187;28;20434;-55
2023/10/08 17:47:20;;;;;;;3.10;2.03;;;;;;;19.58;68.64;100929.28;10334690;28;20058;-55
2023/10/08 17:52:21;;;;;;;7.40;2.40;;;;;;;19.41;68.43;100913.03;10341999;28;20053;-55
2023/10/08 17:57:23;;;;;;;6.93;2.22;;;;;;;19.36;68.00;100930.75;10335797;28;20137;-56
2023/10/08 18:02:26;;;;;;;5.88;2.03;;;;;;;19.27;69.09;100937.97;10335804;28;20049;-55
2023/10/08 18:07:27;;;;;;;3.57;2.00;;;;;;;19.21;69.32;100925.97;10341722;28;20084;-55
2023/10/08 18:12:30;;;;;;;10.77;3.20;;;;;;;19.00;69.12;100899.41;10325125;28;20512;-54
2023/10/08 18:17:32;;;;;;;6.78;2.20;;;;;;;19.00;69.25;100906.66;10335625;28;20056;-54
2023/10/08 18:22:34;;;;;;;3.78;2.17;;;;;;;19.03;69.75;100926.06;10340795;28;20071;-53
2023/10/08 18:27:38;;;;;;;3.40;2.00;;;;;;;19.02;69.54;100910.91;10338098;28;20120;-55
2023/10/08 18:32:40;;;;;;;5.50;2.00;;;;;;;18.99;69.10;100919.31;10335005;28;20736;-57
2023/10/08 18:37:41;;;;;;;3.80;2.00;;;;;;;18.95;69.52;100923.34;10332701;28;20045;-55
2023/10/08 18:42:43;;;;;;;4.43;2.40;;;;;;;18.88;69.49;100927.69;10338178;28;20057;-55
2023/10/08 18:47:45;;;;;;;5.57;2.63;;;;;;;18.89;69.47;100907.81;10340722;28;20144;-49
2023/10/08 18:52:48;;;;;;;5.00;2.10;;;;;;;18.77;69.97;100887.50;10343090;28;20061;-50
2023/10/08 18:57:52;;;;;;;6.32;2.38;;;;;;;18.82;69.35;100894.06;10338154;28;20137;-49
2023/10/08 19:02:55;;;;;;;3.72;2.00;;;;;;;18.81;70.95;100895.09;10339419;28;20049;-48
2023/10/08 19:07:57;;;;;;;4.75;2.33;;;;;;;18.81;70.50;100888.84;10335379;28;20517;-49
2023/10/08 19:12:58;;;;;;;6.80;2.00;;;;;;;18.77;70.00;100876.72;10340246;28;20102;-50
2023/10/08 19:18:04;;;;;;;3.50;1.80;;;;;;;18.72;70.73;100874.50;10329547;28;20689;-55
2023/10/08 19:23:06;;;;;;;2.85;1.90;;;;;;;18.67;70.41;100874.97;10320527;28;20580;-49
2023/10/08 19:28:11;;;;;;;5.97;2.70;;;;;;;18.62;70.47;100874.63;10342265;28;20053;-49
2023/10/08 19:33:12;;;;;;;4.93;2.20;;;;;;;18.55;69.55;100874.44;10332836;28;20068;-49
2023/10/08 19:38:14;;;;;;;4.30;2.47;;;;;;;18.52;70.54;100863.09;10329922;28;20046;-50
2023/10/08 19:43:16;;;;;;;3.72;2.70;;;;;;;18.46;70.09;100863.75;10322916;28;20136;-49
2023/10/08 19:48:18;;;;;;;5.40;2.58;;;;;;;18.21;71.43;100828.59;10336939;28;20134;-49
2023/10/08 19:53:20;;;;;;;4.85;2.40;;;;;;;18.28;70.72;100845.78;10340676;28;20050;-49
2023/10/08 19:58:22;;;;;;;3.55;2.35;;;;;;;18.24;71.73;100839.06;10337371;28;20154;-49
2023/10/08 20:03:23;;;;;;;5.43;2.45;;;;;;;18.28;71.58;100850.34;10341124;28;20334;-50
2023/10/08 20:08:25;;;;;;;4.50;3.33;;;;;;;18.25;71.55;100853.34;10345776;28;20084;-50
2023/10/08 20:13:27;;;;;;;5.15;2.25;;;;;;;18.16;71.54;100853.28;10343572;28;20140;-50
2023/10/08 20:18:30;;;;;;;4.22;2.30;;;;;;;18.12;70.71;100856.47;10340086;28;20056;-49
2023/10/08 20:23:35;;;;;;;4.95;2.80;;;;;;;18.12;71.13;100860.03;10344413;28;20057;-49
2023/10/08 20:28:37;;;;;;;6.65;2.70;;;;;;;18.05;71.61;100860.81;10347996;28;20053;-48
2023/10/08 20:33:40;;;;;;;4.57;2.60;;;;;;;18.01;72.02;100852.19;10343643;28;20049;-49
2023/10/08 20:38:42;;;;;;;3.57;2.30;;;;;;;17.95;71.85;100845.56;10340826;28;21478;-55
2023/10/08 20:43:43;;;;;;;2.95;1.98;;;;;;;17.93;71.61;100852.97;10353728;28;20140;-54
2023/10/08 20:48:46;;;;;;;3.50;1.90;;;;;;;17.89;71.82;100856.97;10357042;28;20050;-55
2023/10/08 20:53:48;;;;;;;4.27;1.90;;;;;;;17.78;71.65;100843.75;10353677;28;20139;-55
2023/10/08 20:58:49;;;;;;;2.33;1.42;;;;;;;17.76;72.46;100838.53;10354255;28;20595;-54
2023/10/08 21:03:51;;;;;;;4.97;2.40;;;;;;;17.74;72.64;100850.44;10357402;28;20045;-55
2023/10/08 21:08:55;;;;;;;5.05;2.45;;;;;;;17.73;71.93;100846.91;10352976;28;20188;-54
2023/10/08 21:13:56;;;;;;;2.97;1.98;;;;;;;17.71;72.37;100838.13;10356204;28;20516;-58
2023/10/08 21:18:58;;;;;;;4.32;2.70;;;;;;;17.69;72.53;100839.31;10354260;28;20061;-54
2023/10/08 21:24:00;;;;;;;3.80;2.00;;;;;;;17.69;73.06;100840.13;10353835;28;20065;-54
2023/10/08 21:29:01;;;;;;;3.45;1.98;;;;;;;17.66;72.90;100830.50;10354584;28;20049;-54
2023/10/08 21:34:03;;;;;;;5.63;2.33;;;;;;;17.63;72.75;100819.22;10352892;28;20724;-54
2023/10/08 21:39:05;;;;;;;4.40;2.65;;;;;;;17.60;73.96;100809.59;10356577;28;20430;-55
2023/10/08 21:44:07;;;;;;;5.90;2.90;;;;;;;17.56;73.20;100797.44;10351077;28;20049;-54
2023/10/08 21:49:08;;;;;;;5.30;3.40;;;;;;;17.49;72.56;100785.66;10348443;28;20049;-55
2023/10/08 21:54:10;;;;;;;6.57;2.90;;;;;;;17.21;72.93;100744.53;10349115;28;20154;-54
2023/10/08 21:59:12;;;;;;;6.50;2.75;;;;;;;17.17;73.08;100740.47;10352372;28;20128;-53
2023/10/08 22:04:16;;;;;;;3.92;2.55;;;;;;;17.38;74.15;100764.34;10346899;28;20525;-53
2023/10/08 22:09:17;;;;;;;7.30;4.28;;;;;;;17.31;74.19;100746.13;10352489;28;20135;-54
2023/10/08 22:14:20;;;;;;;4.22;3.10;;;;;;;17.40;75.41;100760.50;10351529;28;20073;-54
2023/10/08 22:19:22;;;;;;;4.68;2.75;;;;;;;17.38;75.90;100767.88;10351034;28;20041;-54
2023/10/08 22:24:23;;;;;;;4.22;2.35;;;;;;;17.36;75.56;100772.56;10327545;28;20049;-55
2023/10/08 22:29:27;;;;;;;4.78;2.92;;;;;;;17.29;75.11;100764.28;10347054;28;20041;-54
2023/10/08 22:34:30;;;;;;;6.80;2.95;;;;;;;17.27;74.50;100757.38;10346058;28;20168;-55
2023/10/08 22:39:33;;;;;;;3.92;2.85;;;;;;;17.17;76.29;100765.50;10344475;28;20663;-53
2023/10/08 22:44:35;;;;;;;4.47;2.53;;;;;;;17.20;76.04;100746.38;10344149;28;20236;-53
2023/10/08 22:49:37;;;;;;;5.10;2.40;;;;;;;17.19;75.88;100747.38;10345457;28;20064;-54
2023/10/08 22:54:39;;;;;;;5.72;2.72;;;;;;;17.19;75.22;100751.91;10348107;28;20060;-54
2023/10/08 22:59:41;;;;;;;4.15;2.60;;;;;;;17.18;75.32;100740.31;10337181;28;20537;-54
2023/10/08 23:04:43;;;;;;;6.03;2.90;;;;;;;17.18;75.97;100743.00;10339852;28;20239;-54
2023/10/08 23:09:45;;;;;;;6.37;2.83;;;;;;;17.21;75.92;100740.00;10338669;28;20049;-54
2023/10/08 23:14:48;;;;;;;3.47;2.42;;;;;;;17.01;76.16;100695.44;10336511;28;20514;-53
2023/10/08 23:19:51;;;;;;;3.95;2.20;;;;;;;17.11;75.71;100713.19;10328737;28;20042;-53
2023/10/08 23:24:54;;;;;;;3.63;2.50;;;;;;;17.15;76.25;100716.41;10331903;28;20526;-54
2023/10/08 23:29:58;;;;;;;4.57;2.58;;;;;;;17.18;77.72;100717.97;10342474;28;20148;-54
2023/10/08 23:34:59;;;;;;;3.47;2.10;;;;;;;17.13;76.44;100697.75;10332734;28;20064;-54
2023/10/08 23:40:11;;;;;;;2.85;2.30;;;;;;;17.18;76.65;100697.28;10333205;28;20049;-55
2023/10/08 23:45:14;;;;;;;3.50;2.20;;;;;;;17.19;76.71;100695.41;10336162;28;20760;-53
2023/10/08 23:50:16;;;;;;;4.10;2.20;;;;;;;17.19;76.82;100698.09;10334068;28;20663;-55
2023/10/08 23:55:24;;;;;;;3.55;2.30;;;;;;;17.21;76.86;100690.75;10338004;28;20241;-54
